createdAt,value
2019-02-27T00:02:15.986Z,5.33
2019-02-27T00:04:42.065Z,5.32
2019-02-27T00:07:07.961Z,5.31
2019-02-27T00:09:33.921Z,5.28
2019-02-27T00:11:59.978Z,5.24
2019-02-27T00:14:25.888Z,5.21
2019-02-27T00:16:51.840Z,5.21
2019-02-27T00:19:17.997Z,5.19
2019-02-27T00:21:44.356Z,5.19
2019-02-27T00:24:10.205Z,5.18
2019-02-27T00:26:36.194Z,5.16
2019-02-27T00:29:02.154Z,5.15
2019-02-27T00:31:28.113Z,5.14
2019-02-27T00:33:54.211Z,5.14
2019-02-27T00:36:20.050Z,5.15
2019-02-27T00:38:45.937Z,5.13
2019-02-27T00:41:12.950Z,5.12
2019-02-27T00:43:39.132Z,5.11
2019-02-27T00:46:04.993Z,5.10
2019-02-27T00:48:31.058Z,5.06
2019-02-27T00:50:57.027Z,5.07
2019-02-27T00:53:24.577Z,5.06
2019-02-27T00:55:50.804Z,5.06
2019-02-27T00:58:16.659Z,5.06
2019-02-27T01:00:42.620Z,5.08
2019-02-27T01:03:08.591Z,5.09
2019-02-27T01:05:34.439Z,5.09
2019-02-27T01:08:00.419Z,5.09
2019-02-27T01:10:26.558Z,5.05
2019-02-27T01:12:52.819Z,5.07
2019-02-27T01:15:18.877Z,5.06
2019-02-27T01:17:44.931Z,5.07
2019-02-27T01:20:12.054Z,5.08
2019-02-27T01:22:38.077Z,5.11
2019-02-27T01:25:04.555Z,5.13
2019-02-27T01:27:30.395Z,5.13
2019-02-27T01:29:56.300Z,5.11
2019-02-27T01:32:22.372Z,5.08
2019-02-27T01:34:48.229Z,5.06
2019-02-27T01:37:14.072Z,5.06
2019-02-27T01:39:41.787Z,5.05
2019-02-27T01:42:07.866Z,5.02
2019-02-27T01:44:33.833Z,4.97
2019-02-27T01:47:02.394Z,4.94
2019-02-27T01:49:27.554Z,4.94
2019-02-27T01:51:53.432Z,4.93
2019-02-27T01:54:19.635Z,4.92
2019-02-27T01:56:45.475Z,4.91
2019-02-27T01:59:11.343Z,4.89
2019-02-27T02:01:37.696Z,4.89
2019-02-27T02:04:03.653Z,4.90
2019-02-27T02:06:31.939Z,4.90
2019-02-27T02:09:07.934Z,4.91
2019-02-27T02:11:35.034Z,4.90
2019-02-27T02:14:09.538Z,4.90
2019-02-27T02:16:37.301Z,4.91
2019-02-27T02:19:05.399Z,4.89
2019-02-27T02:21:50.166Z,4.90
2019-02-27T02:24:34.561Z,4.86
2019-02-27T02:27:02.453Z,4.84
2019-02-27T02:29:36.228Z,4.81
2019-02-27T02:32:20.574Z,4.80
2019-02-27T02:34:51.136Z,4.80
2019-02-27T02:37:24.834Z,4.80
2019-02-27T02:40:09.093Z,4.80
2019-02-27T02:42:42.880Z,4.75
2019-02-27T02:45:10.628Z,4.81
2019-02-27T02:47:44.537Z,4.80
2019-02-27T02:50:28.847Z,4.79
2019-02-27T02:52:56.713Z,4.77
2019-02-27T02:55:27.627Z,4.75
2019-02-27T02:57:58.617Z,4.74
2019-02-27T03:00:44.353Z,4.74
2019-02-27T03:03:14.893Z,4.72
2019-02-27T03:05:59.924Z,4.79
2019-02-27T03:08:30.747Z,4.85
2019-02-27T03:11:01.522Z,4.91
2019-02-27T03:13:29.294Z,4.99
2019-02-27T03:15:57.188Z,5.10
2019-02-27T03:18:26.188Z,5.21
2019-02-27T03:20:58.002Z,5.35
2019-02-27T03:23:37.941Z,5.49
2019-02-27T03:26:22.496Z,5.60
2019-02-27T03:28:50.270Z,5.71
2019-02-27T03:31:24.100Z,5.83
2019-02-27T03:34:09.208Z,5.93
2019-02-27T03:36:38.971Z,5.98
2019-02-27T03:39:06.816Z,6.03
2019-02-27T03:41:34.574Z,6.09
2019-02-27T03:44:02.501Z,6.13
2019-02-27T03:46:33.036Z,6.16
2019-02-27T03:49:17.339Z,6.22
2019-02-27T03:51:50.922Z,6.24
2019-02-27T03:54:21.302Z,6.27
2019-02-27T03:56:54.344Z,6.31
2019-02-27T03:59:42.659Z,6.34
2019-02-27T04:02:21.668Z,6.40
2019-02-27T04:05:06.851Z,6.45
2019-02-27T04:07:45.915Z,6.47
2019-02-27T04:10:11.946Z,6.51
2019-02-27T04:12:37.904Z,6.53
2019-02-27T04:15:05.687Z,6.56
2019-02-27T04:17:31.556Z,6.58
2019-02-27T04:19:57.530Z,6.61
2019-02-27T04:22:23.788Z,6.64
2019-02-27T04:24:49.749Z,6.64
2019-02-27T04:27:20.090Z,6.68
2019-02-27T04:29:43.310Z,6.69
2019-02-27T04:32:12.089Z,6.67
2019-02-27T04:34:37.007Z,6.70
2019-02-27T04:37:02.873Z,6.69
2019-02-27T04:39:28.956Z,6.71
2019-02-27T04:41:54.854Z,6.72
2019-02-27T04:44:20.686Z,6.74
2019-02-27T04:46:46.725Z,6.74
2019-02-27T04:49:12.607Z,6.76
2019-02-27T04:51:38.497Z,6.77
2019-02-27T04:54:07.308Z,6.78
2019-02-27T04:56:32.175Z,6.77
2019-02-27T04:58:58.018Z,6.79
2019-02-27T05:01:24.006Z,6.78
2019-02-27T05:03:49.896Z,6.76
2019-02-27T05:06:15.765Z,6.78
2019-02-27T05:08:41.902Z,6.76
2019-02-27T05:11:07.811Z,6.76
2019-02-27T05:13:34.591Z,6.76
2019-02-27T05:16:00.697Z,6.77
2019-02-27T05:18:29.275Z,6.76
2019-02-27T05:20:54.340Z,6.76
2019-02-27T05:23:20.397Z,6.75
2019-02-27T05:25:46.388Z,6.77
2019-02-27T05:28:12.261Z,6.77
2019-02-27T05:30:38.267Z,6.79
2019-02-27T05:33:04.103Z,6.79
2019-02-27T05:35:29.960Z,6.79
2019-02-27T05:37:56.048Z,6.80
2019-02-27T05:40:23.125Z,6.78
2019-02-27T05:42:49.703Z,6.77
2019-02-27T05:45:15.709Z,6.76
2019-02-27T05:47:44.742Z,6.76
2019-02-27T05:50:10.238Z,6.79
2019-02-27T05:52:36.189Z,6.81
2019-02-27T05:55:06.129Z,6.83
2019-02-27T05:57:31.375Z,6.83
2019-02-27T06:00:02.210Z,6.84
2019-02-27T06:02:25.599Z,6.86
2019-02-27T06:04:51.506Z,6.88
2019-02-27T06:07:19.018Z,6.88
2019-02-27T06:09:45.167Z,6.90
2019-02-27T06:12:11.013Z,6.90
2019-02-27T06:14:36.972Z,6.91
2019-02-27T06:17:03.020Z,6.93
2019-02-27T06:19:30.590Z,6.95
2019-02-27T06:21:56.937Z,6.97
2019-02-27T06:24:22.778Z,6.98
2019-02-27T06:26:48.803Z,6.98
2019-02-27T06:29:14.838Z,6.98
2019-02-27T06:31:40.784Z,6.99
2019-02-27T06:34:06.662Z,6.97
2019-02-27T06:36:32.713Z,6.98
2019-02-27T06:39:00.325Z,6.99
2019-02-27T06:41:26.439Z,7.01
2019-02-27T06:43:52.350Z,7.02
2019-02-27T06:46:20.091Z,7.03
2019-02-27T06:48:45.904Z,7.05
2019-02-27T06:51:11.953Z,7.06
2019-02-27T06:53:38.056Z,7.08
2019-02-27T06:56:04.115Z,7.10
2019-02-27T06:58:30.139Z,7.11
2019-02-27T07:00:56.025Z,7.13
2019-02-27T07:03:21.981Z,7.14
2019-02-27T07:05:48.129Z,7.16
2019-02-27T07:08:14.684Z,7.18
2019-02-27T07:10:40.553Z,7.21
2019-02-27T07:13:06.529Z,7.21
2019-02-27T07:15:32.414Z,7.22
2019-02-27T07:17:58.340Z,7.23
2019-02-27T07:20:25.285Z,7.26
2019-02-27T07:22:51.296Z,7.28
2019-02-27T07:25:17.354Z,7.29
2019-02-27T07:27:43.392Z,7.32
2019-02-27T07:30:11.179Z,7.35
2019-02-27T07:32:37.155Z,7.35
2019-02-27T07:35:04.033Z,7.37
2019-02-27T07:37:29.910Z,7.39
2019-02-27T07:39:55.788Z,7.39
2019-02-27T07:42:21.923Z,7.12
2019-02-27T07:44:47.785Z,7.41
2019-02-27T07:47:13.638Z,7.41
2019-02-27T07:49:39.602Z,7.41
2019-02-27T07:52:05.620Z,7.43
2019-02-27T07:54:31.704Z,7.46
2019-02-27T07:56:57.728Z,7.49
2019-02-27T07:59:23.629Z,7.52
2019-02-27T08:01:49.467Z,7.55
2019-02-27T08:04:19.055Z,7.57
2019-02-27T08:06:43.308Z,7.58
2019-02-27T08:09:09.299Z,7.59
2019-02-27T08:11:35.329Z,7.62
2019-02-27T08:14:03.257Z,7.67
2019-02-27T08:16:28.966Z,7.69
2019-02-27T08:18:55.052Z,7.69
2019-02-27T08:21:20.939Z,7.70
2019-02-27T08:23:46.809Z,7.72
2019-02-27T08:26:12.844Z,7.74
2019-02-27T08:28:38.741Z,7.76
2019-02-27T08:31:04.691Z,7.77
2019-02-27T08:33:30.760Z,7.74
2019-02-27T08:35:57.996Z,7.81
2019-02-27T08:38:23.805Z,7.81
2019-02-27T08:40:49.849Z,7.82
2019-02-27T08:43:15.763Z,7.83
2019-02-27T08:45:41.594Z,7.86
2019-02-27T08:48:07.634Z,7.89
2019-02-27T08:50:33.509Z,7.93
2019-02-27T08:52:59.370Z,7.95
2019-02-27T08:55:25.567Z,7.98
2019-02-27T08:57:56.015Z,8.00
2019-02-27T09:00:27.164Z,8.04
2019-02-27T09:02:55.324Z,8.08
2019-02-27T09:05:21.096Z,8.10
2019-02-27T09:07:47.258Z,8.11
2019-02-27T09:10:14.114Z,8.13
2019-02-27T09:12:40.330Z,8.15
2019-02-27T09:15:07.508Z,8.19
2019-02-27T09:17:33.392Z,8.21
2019-02-27T09:19:59.284Z,8.22
2019-02-27T09:22:25.465Z,8.25
2019-02-27T09:24:51.314Z,8.28
2019-02-27T09:27:17.189Z,8.31
2019-02-27T09:29:43.138Z,8.29
2019-02-27T09:32:09.281Z,8.39
2019-02-27T09:34:36.914Z,8.42
2019-02-27T09:37:03.056Z,8.46
2019-02-27T09:39:31.256Z,8.50
2019-02-27T09:41:56.599Z,8.53
2019-02-27T09:44:22.625Z,8.58
2019-02-27T09:46:49.877Z,8.64
2019-02-27T09:49:16.185Z,8.69
2019-02-27T09:51:42.226Z,8.74
2019-02-27T09:54:08.205Z,8.78
2019-02-27T09:56:34.070Z,8.83
2019-02-27T09:59:00.211Z,8.88
2019-02-27T10:01:26.059Z,8.93
2019-02-27T10:03:54.625Z,8.98
2019-02-27T10:06:19.901Z,9.03
2019-02-27T10:08:45.880Z,9.05
2019-02-27T10:11:11.771Z,9.07
2019-02-27T10:13:38.524Z,9.09
2019-02-27T10:16:04.606Z,9.12
2019-02-27T10:18:30.521Z,9.14
2019-02-27T10:20:57.653Z,9.16
2019-02-27T10:23:23.654Z,9.17
2019-02-27T10:25:49.997Z,9.20
2019-02-27T10:28:16.222Z,9.20
2019-02-27T10:30:42.197Z,9.23
2019-02-27T10:33:11.146Z,9.25
2019-02-27T10:35:35.992Z,9.26
2019-02-27T10:38:01.975Z,9.29
2019-02-27T10:40:27.965Z,9.32
2019-02-27T10:42:53.912Z,9.33
2019-02-27T10:45:19.787Z,9.35
2019-02-27T10:47:45.666Z,9.38
2019-02-27T10:50:12.609Z,9.39
2019-02-27T10:52:38.575Z,9.40
2019-02-27T10:55:11.348Z,9.43
2019-02-27T10:57:38.412Z,9.47
2019-02-27T11:00:06.082Z,9.51
2019-02-27T11:02:31.992Z,9.53
2019-02-27T11:04:57.936Z,9.55
2019-02-27T11:07:23.802Z,9.58
2019-02-27T11:09:49.795Z,9.61
2019-02-27T11:12:15.759Z,9.64
2019-02-27T11:14:41.844Z,9.68
2019-02-27T11:17:07.816Z,9.69
2019-02-27T11:19:34.878Z,9.72
2019-02-27T11:22:00.917Z,9.73
2019-02-27T11:24:26.782Z,9.75
2019-02-27T11:26:52.957Z,9.77
2019-02-27T11:29:23.589Z,9.81
2019-02-27T11:31:46.991Z,9.83
2019-02-27T11:34:13.047Z,9.85
2019-02-27T11:36:39.645Z,9.86
2019-02-27T11:39:05.722Z,9.87
2019-02-27T11:41:31.868Z,9.89
2019-02-27T11:43:57.921Z,9.92
2019-02-27T11:46:23.811Z,9.93
2019-02-27T11:48:49.772Z,9.96
2019-02-27T11:51:17.495Z,9.96
2019-02-27T11:53:43.437Z,9.94
2019-02-27T11:56:09.507Z,9.96
2019-02-27T11:58:38.517Z,9.99
2019-02-27T12:01:04.687Z,10.02
2019-02-27T12:03:30.822Z,10.06
2019-02-27T12:05:56.787Z,10.10
2019-02-27T12:08:25.791Z,10.17
2019-02-27T12:10:50.525Z,10.23
2019-02-27T12:13:16.389Z,10.28
2019-02-27T12:15:43.586Z,10.30
2019-02-27T12:18:10.267Z,10.27
2019-02-27T12:20:36.111Z,10.31
2019-02-27T12:23:02.123Z,10.30
2019-02-27T12:25:30.150Z,10.27
2019-02-27T12:27:56.337Z,10.27
2019-02-27T12:30:26.035Z,10.26
2019-02-27T12:32:55.587Z,10.26
2019-02-27T12:35:20.973Z,10.22
2019-02-27T12:37:46.950Z,10.27
2019-02-27T12:40:14.281Z,10.25
2019-02-27T12:42:42.514Z,10.23
2019-02-27T12:45:09.752Z,10.23
2019-02-27T12:47:37.612Z,10.16
2019-02-27T12:50:05.188Z,10.22
2019-02-27T12:52:31.097Z,10.21
2019-02-27T12:54:59.096Z,9.97
2019-02-27T12:57:24.834Z,9.96
2019-02-27T12:59:50.769Z,10.20
2019-02-27T13:02:16.819Z,10.21
2019-02-27T13:04:42.710Z,10.20
2019-02-27T13:07:10.716Z,10.17
2019-02-27T13:09:36.509Z,10.13
2019-02-27T13:12:02.447Z,10.11
2019-02-27T13:14:28.298Z,10.10
2019-02-27T13:16:54.369Z,10.04
2019-02-27T13:19:20.355Z,10.08
2019-02-27T13:21:46.313Z,10.08
2019-02-27T13:24:15.079Z,10.06
2019-02-27T13:26:39.986Z,10.05
2019-02-27T13:29:05.956Z,10.05
2019-02-27T13:31:31.923Z,10.04
2019-02-27T13:33:57.825Z,10.03
2019-02-27T13:36:23.771Z,10.03
2019-02-27T13:38:52.171Z,9.98
2019-02-27T13:41:17.659Z,10.04
2019-02-27T13:43:43.636Z,10.04
2019-02-27T13:46:09.579Z,10.03
2019-02-27T13:48:37.405Z,10.04
2019-02-27T13:51:03.349Z,10.05
2019-02-27T13:53:29.392Z,10.02
2019-02-27T13:55:55.270Z,10.01
2019-02-27T13:58:21.107Z,9.99
2019-02-27T14:00:47.197Z,9.96
2019-02-27T14:03:13.420Z,9.92
2019-02-27T14:05:39.238Z,9.90
2019-02-27T14:08:05.299Z,9.89
2019-02-27T14:10:32.173Z,9.88
2019-02-27T14:12:58.160Z,9.84
2019-02-27T14:15:26.732Z,9.81
2019-02-27T14:17:51.953Z,9.79
2019-02-27T14:20:19.946Z,9.78
2019-02-27T14:22:46.103Z,9.77
2019-02-27T14:25:13.897Z,9.76
2019-02-27T14:27:39.833Z,9.75
2019-02-27T14:30:07.721Z,9.73
2019-02-27T14:32:33.615Z,9.71
2019-02-27T14:35:00.515Z,9.70
2019-02-27T14:37:27.367Z,9.69
2019-02-27T14:39:53.308Z,9.69
2019-02-27T14:42:20.492Z,9.69
2019-02-27T14:44:47.047Z,9.69
2019-02-27T14:47:12.906Z,9.67
2019-02-27T14:49:38.849Z,9.61
2019-02-27T14:52:05.034Z,9.57
2019-02-27T14:54:31.032Z,9.55
2019-02-27T14:56:56.969Z,9.50
2019-02-27T14:59:23.144Z,9.48
2019-02-27T15:01:49.441Z,9.47
2019-02-27T15:04:15.374Z,9.48
2019-02-27T15:06:41.830Z,9.49
2019-02-27T15:09:07.783Z,9.49
2019-02-27T15:11:33.658Z,9.47
2019-02-27T15:14:00.691Z,9.46
2019-02-27T15:16:26.634Z,9.45
2019-02-27T15:18:55.004Z,9.43
2019-02-27T15:21:20.510Z,9.42
2019-02-27T15:23:46.358Z,9.41
2019-02-27T15:26:13.677Z,9.39
2019-02-27T15:28:41.648Z,9.38
2019-02-27T15:31:08.322Z,9.36
2019-02-27T15:33:35.890Z,9.33
2019-02-27T15:36:02.129Z,9.32
2019-02-27T15:38:28.094Z,9.28
2019-02-27T15:40:54.327Z,9.24
2019-02-27T15:43:20.296Z,9.21
2019-02-27T15:45:47.987Z,9.21
2019-02-27T15:48:13.977Z,9.19
2019-02-27T15:50:40.071Z,9.17
2019-02-27T15:53:06.015Z,9.16
2019-02-27T15:55:34.249Z,9.17
2019-02-27T15:57:59.606Z,9.15
2019-02-27T16:00:26.054Z,9.14
2019-02-27T16:02:52.201Z,9.12
2019-02-27T16:05:18.287Z,9.09
2019-02-27T16:07:49.634Z,9.04
2019-02-27T16:10:19.726Z,9.02
2019-02-27T16:12:45.597Z,9.00
2019-02-27T16:15:16.944Z,8.99
2019-02-27T16:17:43.339Z,9.01
2019-02-27T16:20:16.143Z,9.01
2019-02-27T16:22:40.947Z,9.01
2019-02-27T16:25:08.523Z,9.03
2019-02-27T16:27:35.374Z,9.02
2019-02-27T16:30:02.988Z,8.99
2019-02-27T16:32:28.980Z,8.94
2019-02-27T16:34:54.852Z,8.92
2019-02-27T16:37:22.808Z,8.91
2019-02-27T16:39:48.474Z,8.90
2019-02-27T16:42:14.338Z,8.88
2019-02-27T16:44:40.294Z,8.86
2019-02-27T16:47:06.239Z,8.82
2019-02-27T16:49:32.198Z,8.80
2019-02-27T16:51:58.067Z,8.78
2019-02-27T16:54:26.611Z,8.79
2019-02-27T16:56:51.696Z,8.78
2019-02-27T16:59:17.545Z,8.76
2019-02-27T17:01:44.458Z,8.72
2019-02-27T17:04:11.423Z,8.69
2019-02-27T17:06:37.305Z,8.67
2019-02-27T17:09:07.033Z,8.59
2019-02-27T17:11:32.574Z,8.65
2019-02-27T17:13:58.978Z,8.62
2019-02-27T17:16:25.046Z,8.58
2019-02-27T17:18:50.882Z,8.55
2019-02-27T17:21:19.457Z,8.53
2019-02-27T17:23:46.681Z,8.49
2019-02-27T17:26:12.299Z,8.46
2019-02-27T17:28:38.281Z,8.45
2019-02-27T17:31:04.332Z,8.43
2019-02-27T17:33:31.531Z,8.41
2019-02-27T17:35:59.256Z,8.40
2019-02-27T17:38:25.310Z,8.39
2019-02-27T17:40:52.462Z,8.38
2019-02-27T17:43:18.416Z,8.35
2019-02-27T17:45:46.944Z,8.32
2019-02-27T17:48:13.042Z,8.28
2019-02-27T17:50:39.060Z,8.26
2019-02-27T17:53:05.035Z,8.23
2019-02-27T17:55:30.893Z,8.21
2019-02-27T17:57:58.420Z,8.20
2019-02-27T18:00:38.751Z,8.18
2019-02-27T18:03:05.815Z,8.12
2019-02-27T18:05:31.837Z,8.09
2019-02-27T18:07:57.982Z,8.09
2019-02-27T18:10:24.040Z,8.07
2019-02-27T18:12:51.606Z,8.04
2019-02-27T18:15:20.367Z,8.00
2019-02-27T18:17:46.063Z,7.97
2019-02-27T18:20:12.144Z,7.94
2019-02-27T18:22:38.222Z,7.92
2019-02-27T18:25:07.438Z,7.90
2019-02-27T18:27:33.544Z,7.87
2019-02-27T18:29:59.919Z,7.85
2019-02-27T18:32:26.484Z,7.85
2019-02-27T18:34:54.561Z,7.85
2019-02-27T18:37:20.255Z,7.82
2019-02-27T18:39:46.213Z,7.83
2019-02-27T18:42:12.061Z,7.81
2019-02-27T18:44:38.366Z,7.79
2019-02-27T18:47:05.795Z,7.78
2019-02-27T18:49:31.650Z,7.75
2019-02-27T18:51:57.658Z,7.75
2019-02-27T18:54:25.167Z,7.74
2019-02-27T18:56:51.284Z,7.73
2019-02-27T18:59:17.379Z,7.69
2019-02-27T19:01:45.101Z,7.66
2019-02-27T19:04:10.980Z,7.64
2019-02-27T19:06:36.989Z,7.62
2019-02-27T19:09:03.439Z,7.58
2019-02-27T19:11:29.293Z,7.57
2019-02-27T19:13:55.449Z,7.54
2019-02-27T19:16:21.536Z,7.53
2019-02-27T19:18:47.506Z,7.52
2019-02-27T19:21:13.649Z,7.50
2019-02-27T19:23:39.605Z,7.48
2019-02-27T19:26:06.415Z,7.47
2019-02-27T19:28:33.476Z,7.45
2019-02-27T19:30:59.428Z,7.44
2019-02-27T19:33:25.685Z,7.40
2019-02-27T19:35:55.960Z,7.39
2019-02-27T19:38:19.589Z,7.37
2019-02-27T19:40:45.564Z,7.35
2019-02-27T19:43:11.632Z,7.33
2019-02-27T19:45:37.576Z,7.29
2019-02-27T19:48:03.732Z,7.27
2019-02-27T19:50:29.842Z,7.26
2019-02-27T19:52:55.885Z,7.23
2019-02-27T19:55:26.535Z,7.21
2019-02-27T19:57:49.782Z,7.20
2019-02-27T20:00:16.854Z,7.19
2019-02-27T20:02:42.704Z,7.20
2019-02-27T20:05:08.843Z,7.18
2019-02-27T20:07:35.830Z,7.18
2019-02-27T20:10:03.143Z,7.16
2019-02-27T20:12:29.388Z,7.14
2019-02-27T20:14:55.432Z,7.13
2019-02-27T20:17:21.304Z,7.13
2019-02-27T20:19:47.348Z,7.12
2019-02-27T20:22:15.440Z,7.11
2019-02-27T20:24:43.040Z,7.08
2019-02-27T20:27:09.138Z,7.08
2019-02-27T20:29:39.249Z,7.05
2019-02-27T20:32:02.739Z,7.08
2019-02-27T20:34:28.831Z,7.08
2019-02-27T20:36:54.781Z,7.08
2019-02-27T20:39:23.175Z,7.08
2019-02-27T20:41:48.696Z,7.08
2019-02-27T20:44:14.760Z,7.05
2019-02-27T20:46:40.635Z,7.03
2019-02-27T20:49:06.617Z,7.01
2019-02-27T20:51:32.472Z,6.71
2019-02-27T20:53:58.314Z,6.95
2019-02-27T20:56:24.259Z,6.93
2019-02-27T20:58:51.968Z,6.89
2019-02-27T21:01:17.899Z,6.89
2019-02-27T21:03:43.934Z,6.86
2019-02-27T21:06:12.766Z,6.84
2019-02-27T21:08:37.471Z,6.84
2019-02-27T21:11:03.669Z,6.30
2019-02-27T21:13:29.462Z,6.79
2019-02-27T21:15:55.304Z,6.78
2019-02-27T21:18:21.325Z,6.77
2019-02-27T21:20:47.188Z,6.76
2019-02-27T21:23:13.156Z,6.75
2019-02-27T21:25:39.189Z,6.74
2019-02-27T21:28:07.658Z,6.72
2019-02-27T21:30:32.820Z,6.71
2019-02-27T21:32:58.860Z,6.68
2019-02-27T21:35:28.738Z,6.66
2019-02-27T21:37:52.703Z,6.64
2019-02-27T21:40:18.824Z,6.63
2019-02-27T21:42:44.774Z,6.60
2019-02-27T21:45:11.850Z,6.59
2019-02-27T21:47:38.074Z,6.59
2019-02-27T21:50:06.981Z,6.58
2019-02-27T21:52:33.059Z,6.57
2019-02-27T21:54:59.061Z,6.59
2019-02-27T21:57:25.614Z,6.56
2019-02-27T21:59:52.100Z,6.56
2019-02-27T22:02:18.153Z,6.53
2019-02-27T22:04:44.733Z,6.51
2019-02-27T22:07:10.561Z,6.51
2019-02-27T22:09:36.687Z,6.50
2019-02-27T22:12:02.651Z,6.49
2019-02-27T22:14:28.528Z,6.49
2019-02-27T22:16:54.472Z,6.47
2019-02-27T22:19:20.433Z,6.46
2019-02-27T22:21:46.325Z,6.44
2019-02-27T22:24:12.273Z,6.43
2019-02-27T22:26:38.435Z,6.41
2019-02-27T22:29:04.311Z,6.39
2019-02-27T22:31:30.317Z,6.38
2019-02-27T22:33:57.008Z,6.34
2019-02-27T22:36:22.874Z,6.32
2019-02-27T22:38:48.982Z,6.31
2019-02-27T22:41:14.860Z,6.31
2019-02-27T22:43:40.704Z,6.30
2019-02-27T22:46:06.649Z,6.30
2019-02-27T22:48:32.525Z,6.29
2019-02-27T22:50:58.438Z,6.27
2019-02-27T22:53:26.202Z,6.26
2019-02-27T22:55:52.056Z,6.25
2019-02-27T22:58:19.635Z,6.24
2019-02-27T23:00:49.682Z,6.25
2019-02-27T23:03:15.750Z,6.24
2019-02-27T23:05:41.788Z,6.22
2019-02-27T23:08:07.998Z,6.22
2019-02-27T23:10:33.838Z,6.21
2019-02-27T23:12:59.825Z,6.19
2019-02-27T23:15:25.983Z,6.18
2019-02-27T23:17:51.926Z,6.17
2019-02-27T23:20:20.871Z,6.17
2019-02-27T23:22:45.730Z,6.15
2019-02-27T23:25:11.711Z,6.16
2019-02-27T23:27:37.654Z,6.15
2019-02-27T23:30:04.970Z,6.14
2019-02-27T23:32:30.955Z,6.12
2019-02-27T23:34:56.800Z,6.11
2019-02-27T23:37:22.851Z,6.10
2019-02-27T23:39:48.740Z,6.10
2019-02-27T23:42:14.589Z,6.08
2019-02-27T23:44:40.571Z,6.06
2019-02-27T23:47:06.615Z,6.04
2019-02-27T23:49:32.488Z,6.03
2019-02-27T23:51:58.498Z,6.02
2019-02-27T23:54:24.480Z,6.01
2019-02-27T23:56:51.848Z,6.01
2019-02-27T23:59:18.121Z,6.00
